TISX/STX METAR and TAF weather

Enter ICAO airport designator
Station Type Date Time Source
TISX METAR 2019/11/13 01:53 UTC NOAA

TISX 130153Z AUTO 01005KT 10SM CLR 24/21 A2993 RMK AO2 SLP134 T02390206


Station Type Date Time Source
TISX Decoded METAR 2019/11/13 01:53 UTC NOAA

Christiansted, Henry E. Rohlsen Airport, Virgin Islands (TISX) 17-42N 064-48W 17M
Nov 12, 2019 - 08:53 PM EST / 2019.11.13 0153 UTC
Wind: from the N (010 degrees) at 6 MPH (5 KT):0
Visibility: 10 mile(s):0
Sky conditions: clear
Temperature: 75.0 F (23.9 C)
Dew Point: 69.1 F (20.6 C)
Relative Humidity: 81%
Pressure (altimeter): 29.93 in. Hg (1013 hPa)
ob: TISX 130153Z AUTO 01005KT 10SM CLR 24/21 A2993 RMK AO2 SLP134 T02390206
cycle: 2

Station Type Date Time Source
TISX TAF 2019/11/12 18:24 UTC NOAA

TAF TISX 121720Z 1218/1318 11014KT P6SM FEW025
FM122200 07006KT P6SM FEW030
FM131400 11012KT P6SM FEW030 SCT050

Example: see airport list